sensor_id;sensor_type;location;lat;lon;timestamp;P1;durP1;ratioP1;P2;durP2;ratioP2
4636;SDS011;2331;48.806;9.140;2024-02-21T00:00:52;10.75;;;3.47;;
4636;SDS011;2331;48.806;9.140;2024-02-21T00:03:18;9.15;;;3.10;;
4636;SDS011;2331;48.806;9.140;2024-02-21T00:05:45;8.82;;;3.22;;
4636;SDS011;2331;48.806;9.140;2024-02-21T00:08:13;10.38;;;3.40;;
4636;SDS011;2331;48.806;9.140;2024-02-21T00:10:40;7.75;;;3.88;;
4636;SDS011;2331;48.806;9.140;2024-02-21T00:13:07;16.98;;;4.15;;
4636;SDS011;2331;48.806;9.140;2024-02-21T00:15:34;11.60;;;4.10;;
4636;SDS011;2331;48.806;9.140;2024-02-21T00:18:01;12.52;;;4.13;;
4636;SDS011;2331;48.806;9.140;2024-02-21T00:20:27;9.02;;;3.80;;
4636;SDS011;2331;48.806;9.140;2024-02-21T00:22:55;9.40;;;3.28;;
4636;SDS011;2331;48.806;9.140;2024-02-21T00:25:23;8.75;;;3.15;;
4636;SDS011;2331;48.806;9.140;2024-02-21T00:27:50;7.75;;;3.28;;
4636;SDS011;2331;48.806;9.140;2024-02-21T00:30:16;12.07;;;3.78;;
4636;SDS011;2331;48.806;9.140;2024-02-21T00:32:43;9.40;;;3.40;;
4636;SDS011;2331;48.806;9.140;2024-02-21T00:35:10;14.20;;;3.45;;
4636;SDS011;2331;48.806;9.140;2024-02-21T00:37:37;10.80;;;4.13;;
4636;SDS011;2331;48.806;9.140;2024-02-21T00:40:04;9.65;;;4.32;;
4636;SDS011;2331;48.806;9.140;2024-02-21T00:42:33;10.60;;;3.83;;
4636;SDS011;2331;48.806;9.140;2024-02-21T00:45:00;12.52;;;3.85;;
4636;SDS011;2331;48.806;9.140;2024-02-21T00:47:27;9.65;;;3.42;;
4636;SDS011;2331;48.806;9.140;2024-02-21T00:49:53;8.73;;;3.38;;
4636;SDS011;2331;48.806;9.140;2024-02-21T00:52:21;11.80;;;4.35;;
4636;SDS011;2331;48.806;9.140;2024-02-21T00:54:47;9.35;;;4.60;;
4636;SDS011;2331;48.806;9.140;2024-02-21T00:57:14;17.60;;;4.90;;
4636;SDS011;2331;48.806;9.140;2024-02-21T00:59:43;16.17;;;4.40;;
4636;SDS011;2331;48.806;9.140;2024-02-21T01:02:09;11.45;;;4.05;;
4636;SDS011;2331;48.806;9.140;2024-02-21T01:04:36;11.55;;;3.63;;
4636;SDS011;2331;48.806;9.140;2024-02-21T01:07:03;13.07;;;4.57;;
4636;SDS011;2331;48.806;9.140;2024-02-21T01:09:30;9.55;;;4.18;;
4636;SDS011;2331;48.806;9.140;2024-02-21T01:11:57;9.95;;;3.90;;
4636;SDS011;2331;48.806;9.140;2024-02-21T01:14:23;8.13;;;3.60;;
4636;SDS011;2331;48.806;9.140;2024-02-21T01:16:51;11.35;;;3.80;;
4636;SDS011;2331;48.806;9.140;2024-02-21T01:19:18;10.90;;;3.83;;
4636;SDS011;2331;48.806;9.140;2024-02-21T01:21:45;11.85;;;4.35;;
4636;SDS011;2331;48.806;9.140;2024-02-21T01:24:12;9.68;;;3.25;;
4636;SDS011;2331;48.806;9.140;2024-02-21T01:26:39;11.02;;;3.70;;
4636;SDS011;2331;48.806;9.140;2024-02-21T01:29:06;14.90;;;4.30;;
4636;SDS011;2331;48.806;9.140;2024-02-21T01:31:33;8.85;;;3.45;;
4636;SDS011;2331;48.806;9.140;2024-02-21T01:34:01;7.10;;;3.50;;
4636;SDS011;2331;48.806;9.140;2024-02-21T01:36:28;12.10;;;3.42;;
4636;SDS011;2331;48.806;9.140;2024-02-21T01:38:54;8.25;;;2.95;;
4636;SDS011;2331;48.806;9.140;2024-02-21T01:41:21;10.23;;;3.45;;
4636;SDS011;2331;48.806;9.140;2024-02-21T01:43:48;9.77;;;3.42;;
4636;SDS011;2331;48.806;9.140;2024-02-21T01:46:15;10.93;;;3.45;;
4636;SDS011;2331;48.806;9.140;2024-02-21T01:48:42;9.23;;;3.70;;
4636;SDS011;2331;48.806;9.140;2024-02-21T01:51:12;16.20;;;3.97;;
4636;SDS011;2331;48.806;9.140;2024-02-21T01:53:40;7.53;;;3.25;;
4636;SDS011;2331;48.806;9.140;2024-02-21T01:56:09;10.48;;;3.40;;
4636;SDS011;2331;48.806;9.140;2024-02-21T01:58:37;6.57;;;3.03;;
4636;SDS011;2331;48.806;9.140;2024-02-21T02:01:05;11.10;;;4.15;;
4636;SDS011;2331;48.806;9.140;2024-02-21T02:03:35;7.40;;;3.20;;
4636;SDS011;2331;48.806;9.140;2024-02-21T02:06:02;8.57;;;3.30;;
4636;SDS011;2331;48.806;9.140;2024-02-21T02:08:32;8.05;;;3.45;;
4636;SDS011;2331;48.806;9.140;2024-02-21T02:10:59;9.10;;;3.25;;
4636;SDS011;2331;48.806;9.140;2024-02-21T02:13:29;8.95;;;3.70;;
4636;SDS011;2331;48.806;9.140;2024-02-21T02:15:56;8.85;;;3.30;;
4636;SDS011;2331;48.806;9.140;2024-02-21T02:18:23;6.82;;;3.20;;
4636;SDS011;2331;48.806;9.140;2024-02-21T02:20:49;8.93;;;3.65;;
4636;SDS011;2331;48.806;9.140;2024-02-21T02:23:20;8.77;;;3.45;;
4636;SDS011;2331;48.806;9.140;2024-02-21T02:25:48;10.15;;;3.60;;
4636;SDS011;2331;48.806;9.140;2024-02-21T02:28:17;9.90;;;3.30;;
4636;SDS011;2331;48.806;9.140;2024-02-21T02:30:44;12.10;;;3.30;;
4636;SDS011;2331;48.806;9.140;2024-02-21T02:33:11;13.80;;;4.22;;
4636;SDS011;2331;48.806;9.140;2024-02-21T02:35:38;8.57;;;3.78;;
4636;SDS011;2331;48.806;9.140;2024-02-21T02:38:04;12.32;;;3.88;;
4636;SDS011;2331;48.806;9.140;2024-02-21T02:40:34;13.57;;;3.80;;
4636;SDS011;2331;48.806;9.140;2024-02-21T02:43:00;7.50;;;3.60;;
4636;SDS011;2331;48.806;9.140;2024-02-21T02:45:28;6.80;;;2.55;;
4636;SDS011;2331;48.806;9.140;2024-02-21T02:47:55;7.72;;;3.00;;
4636;SDS011;2331;48.806;9.140;2024-02-21T02:50:22;5.07;;;2.30;;
4636;SDS011;2331;48.806;9.140;2024-02-21T02:52:49;9.00;;;3.20;;
4636;SDS011;2331;48.806;9.140;2024-02-21T02:55:16;8.93;;;2.80;;
4636;SDS011;2331;48.806;9.140;2024-02-21T02:57:44;9.70;;;3.08;;
4636;SDS011;2331;48.806;9.140;2024-02-21T03:00:11;7.28;;;2.95;;
4636;SDS011;2331;48.806;9.140;2024-02-21T03:02:40;13.55;;;3.25;;
4636;SDS011;2331;48.806;9.140;2024-02-21T03:05:11;12.02;;;3.10;;
4636;SDS011;2331;48.806;9.140;2024-02-21T03:07:39;7.45;;;2.60;;
4636;SDS011;2331;48.806;9.140;2024-02-21T03:10:06;8.85;;;3.03;;
4636;SDS011;2331;48.806;9.140;2024-02-21T03:12:34;7.03;;;2.83;;
4636;SDS011;2331;48.806;9.140;2024-02-21T03:15:02;7.18;;;2.72;;
4636;SDS011;2331;48.806;9.140;2024-02-21T03:17:29;5.93;;;2.50;;
4636;SDS011;2331;48.806;9.140;2024-02-21T03:19:56;8.38;;;2.80;;
4636;SDS011;2331;48.806;9.140;2024-02-21T03:22:23;9.23;;;3.40;;
4636;SDS011;2331;48.806;9.140;2024-02-21T03:24:50;8.13;;;3.08;;
4636;SDS011;2331;48.806;9.140;2024-02-21T03:27:17;15.27;;;2.85;;
4636;SDS011;2331;48.806;9.140;2024-02-21T03:29:44;6.75;;;3.00;;
4636;SDS011;2331;48.806;9.140;2024-02-21T03:32:12;7.45;;;3.17;;
4636;SDS011;2331;48.806;9.140;2024-02-21T03:34:39;7.07;;;2.45;;
4636;SDS011;2331;48.806;9.140;2024-02-21T03:37:06;8.38;;;2.80;;
4636;SDS011;2331;48.806;9.140;2024-02-21T03:39:33;8.48;;;3.08;;
4636;SDS011;2331;48.806;9.140;2024-02-21T03:42:00;12.00;;;3.85;;
4636;SDS011;2331;48.806;9.140;2024-02-21T03:44:29;8.25;;;3.30;;
4636;SDS011;2331;48.806;9.140;2024-02-21T03:46:56;8.38;;;2.65;;
4636;SDS011;2331;48.806;9.140;2024-02-21T03:49:24;9.43;;;3.42;;
4636;SDS011;2331;48.806;9.140;2024-02-21T03:51:51;6.72;;;3.10;;
4636;SDS011;2331;48.806;9.140;2024-02-21T03:54:18;11.55;;;3.17;;
4636;SDS011;2331;48.806;9.140;2024-02-21T03:56:45;10.95;;;3.20;;
4636;SDS011;2331;48.806;9.140;2024-02-21T03:59:13;9.60;;;3.33;;
4636;SDS011;2331;48.806;9.140;2024-02-21T04:01:40;7.45;;;3.25;;
4636;SDS011;2331;48.806;9.140;2024-02-21T04:04:07;8.77;;;3.00;;
4636;SDS011;2331;48.806;9.140;2024-02-21T04:06:35;9.75;;;4.07;;
4636;SDS011;2331;48.806;9.140;2024-02-21T04:09:02;11.13;;;3.22;;
4636;SDS011;2331;48.806;9.140;2024-02-21T04:11:29;11.00;;;3.50;;
4636;SDS011;2331;48.806;9.140;2024-02-21T04:13:56;11.10;;;3.40;;
4636;SDS011;2331;48.806;9.140;2024-02-21T04:16:23;6.63;;;3.05;;
4636;SDS011;2331;48.806;9.140;2024-02-21T04:18:50;7.75;;;3.03;;
4636;SDS011;2331;48.806;9.140;2024-02-21T04:21:17;11.90;;;3.20;;
4636;SDS011;2331;48.806;9.140;2024-02-21T04:23:45;9.52;;;3.33;;
4636;SDS011;2331;48.806;9.140;2024-02-21T04:26:12;8.15;;;3.30;;
4636;SDS011;2331;48.806;9.140;2024-02-21T04:28:39;7.40;;;3.40;;
4636;SDS011;2331;48.806;9.140;2024-02-21T04:31:05;7.28;;;2.63;;
4636;SDS011;2331;48.806;9.140;2024-02-21T04:33:32;8.90;;;2.90;;
4636;SDS011;2331;48.806;9.140;2024-02-21T04:35:59;12.02;;;3.80;;
4636;SDS011;2331;48.806;9.140;2024-02-21T04:38:27;10.88;;;3.08;;
4636;SDS011;2331;48.806;9.140;2024-02-21T04:40:55;6.43;;;3.25;;
4636;SDS011;2331;48.806;9.140;2024-02-21T04:43:23;7.38;;;2.63;;
4636;SDS011;2331;48.806;9.140;2024-02-21T04:45:50;9.27;;;3.10;;
4636;SDS011;2331;48.806;9.140;2024-02-21T04:48:18;6.30;;;2.67;;
4636;SDS011;2331;48.806;9.140;2024-02-21T04:50:45;8.02;;;2.83;;
4636;SDS011;2331;48.806;9.140;2024-02-21T04:53:12;8.18;;;2.78;;
4636;SDS011;2331;48.806;9.140;2024-02-21T04:55:39;7.32;;;2.70;;
4636;SDS011;2331;48.806;9.140;2024-02-21T04:58:07;8.98;;;3.03;;
4636;SDS011;2331;48.806;9.140;2024-02-21T05:00:34;8.65;;;3.40;;
4636;SDS011;2331;48.806;9.140;2024-02-21T05:03:01;10.88;;;3.15;;
4636;SDS011;2331;48.806;9.140;2024-02-21T05:05:28;6.90;;;3.10;;
4636;SDS011;2331;48.806;9.140;2024-02-21T05:07:54;9.98;;;3.03;;
4636;SDS011;2331;48.806;9.140;2024-02-21T05:10:21;10.43;;;2.92;;
4636;SDS011;2331;48.806;9.140;2024-02-21T05:12:50;5.50;;;2.50;;
4636;SDS011;2331;48.806;9.140;2024-02-21T05:15:19;9.35;;;3.00;;
4636;SDS011;2331;48.806;9.140;2024-02-21T05:17:45;5.47;;;2.40;;
4636;SDS011;2331;48.806;9.140;2024-02-21T05:20:12;7.47;;;2.60;;
4636;SDS011;2331;48.806;9.140;2024-02-21T05:22:39;11.02;;;3.10;;
4636;SDS011;2331;48.806;9.140;2024-02-21T05:25:06;9.65;;;2.70;;
4636;SDS011;2331;48.806;9.140;2024-02-21T05:27:33;9.65;;;3.00;;
4636;SDS011;2331;48.806;9.140;2024-02-21T05:30:02;8.77;;;2.75;;
4636;SDS011;2331;48.806;9.140;2024-02-21T05:32:30;13.90;;;3.65;;
4636;SDS011;2331;48.806;9.140;2024-02-21T05:34:57;11.65;;;3.13;;
4636;SDS011;2331;48.806;9.140;2024-02-21T05:37:24;6.63;;;2.50;;
4636;SDS011;2331;48.806;9.140;2024-02-21T05:39:51;11.60;;;3.63;;
4636;SDS011;2331;48.806;9.140;2024-02-21T05:42:18;11.70;;;3.25;;
4636;SDS011;2331;48.806;9.140;2024-02-21T05:44:44;7.30;;;2.63;;
4636;SDS011;2331;48.806;9.140;2024-02-21T05:47:11;9.13;;;3.08;;
4636;SDS011;2331;48.806;9.140;2024-02-21T05:49:41;7.35;;;3.25;;
4636;SDS011;2331;48.806;9.140;2024-02-21T05:52:08;8.15;;;2.85;;
4636;SDS011;2331;48.806;9.140;2024-02-21T05:54:37;10.93;;;3.25;;
4636;SDS011;2331;48.806;9.140;2024-02-21T05:57:04;8.68;;;2.72;;
4636;SDS011;2331;48.806;9.140;2024-02-21T05:59:32;7.35;;;2.90;;
4636;SDS011;2331;48.806;9.140;2024-02-21T06:02:00;9.45;;;3.35;;
4636;SDS011;2331;48.806;9.140;2024-02-21T06:04:28;6.88;;;3.03;;
4636;SDS011;2331;48.806;9.140;2024-02-21T06:06:57;11.30;;;3.40;;
4636;SDS011;2331;48.806;9.140;2024-02-21T06:09:23;4.82;;;2.70;;
4636;SDS011;2331;48.806;9.140;2024-02-21T06:11:50;10.20;;;3.22;;
4636;SDS011;2331;48.806;9.140;2024-02-21T06:14:17;10.98;;;3.38;;
4636;SDS011;2331;48.806;9.140;2024-02-21T06:16:44;8.90;;;3.25;;
4636;SDS011;2331;48.806;9.140;2024-02-21T06:19:10;8.77;;;3.10;;
4636;SDS011;2331;48.806;9.140;2024-02-21T06:21:40;8.50;;;3.47;;
4636;SDS011;2331;48.806;9.140;2024-02-21T06:24:08;7.18;;;3.20;;
4636;SDS011;2331;48.806;9.140;2024-02-21T06:26:34;7.82;;;3.00;;
4636;SDS011;2331;48.806;9.140;2024-02-21T06:29:00;10.38;;;3.03;;
4636;SDS011;2331;48.806;9.140;2024-02-21T06:31:27;6.82;;;2.92;;
4636;SDS011;2331;48.806;9.140;2024-02-21T06:33:56;6.53;;;3.28;;
4636;SDS011;2331;48.806;9.140;2024-02-21T06:36:25;8.95;;;2.92;;
4636;SDS011;2331;48.806;9.140;2024-02-21T06:38:52;6.68;;;2.92;;
4636;SDS011;2331;48.806;9.140;2024-02-21T06:41:20;5.60;;;2.40;;
4636;SDS011;2331;48.806;9.140;2024-02-21T06:43:47;7.82;;;2.50;;
4636;SDS011;2331;48.806;9.140;2024-02-21T06:46:22;7.25;;;2.08;;
4636;SDS011;2331;48.806;9.140;2024-02-21T06:48:50;8.77;;;2.60;;
4636;SDS011;2331;48.806;9.140;2024-02-21T06:51:17;5.10;;;2.22;;
4636;SDS011;2331;48.806;9.140;2024-02-21T06:53:43;6.85;;;2.28;;
4636;SDS011;2331;48.806;9.140;2024-02-21T06:56:10;6.07;;;2.63;;
4636;SDS011;2331;48.806;9.140;2024-02-21T06:58:39;8.43;;;2.50;;
4636;SDS011;2331;48.806;9.140;2024-02-21T07:01:06;7.65;;;2.40;;
4636;SDS011;2331;48.806;9.140;2024-02-21T07:03:32;8.18;;;2.72;;
4636;SDS011;2331;48.806;9.140;2024-02-21T07:05:59;7.63;;;2.88;;
4636;SDS011;2331;48.806;9.140;2024-02-21T07:08:27;10.70;;;3.15;;
4636;SDS011;2331;48.806;9.140;2024-02-21T07:10:54;5.88;;;2.42;;
4636;SDS011;2331;48.806;9.140;2024-02-21T07:13:20;5.15;;;2.40;;
4636;SDS011;2331;48.806;9.140;2024-02-21T07:15:49;13.02;;;3.20;;
4636;SDS011;2331;48.806;9.140;2024-02-21T07:18:16;9.65;;;2.45;;
4636;SDS011;2331;48.806;9.140;2024-02-21T07:20:43;10.68;;;3.38;;
4636;SDS011;2331;48.806;9.140;2024-02-21T07:23:10;7.70;;;2.40;;
4636;SDS011;2331;48.806;9.140;2024-02-21T07:25:36;5.53;;;3.00;;
4636;SDS011;2331;48.806;9.140;2024-02-21T07:28:03;10.10;;;2.80;;
4636;SDS011;2331;48.806;9.140;2024-02-21T07:30:30;8.05;;;2.33;;
4636;SDS011;2331;48.806;9.140;2024-02-21T07:32:58;6.45;;;2.40;;
4636;SDS011;2331;48.806;9.140;2024-02-21T07:35:25;7.03;;;2.72;;
4636;SDS011;2331;48.806;9.140;2024-02-21T07:37:52;8.15;;;2.47;;
4636;SDS011;2331;48.806;9.140;2024-02-21T07:40:19;4.03;;;1.95;;
4636;SDS011;2331;48.806;9.140;2024-02-21T07:42:46;6.05;;;2.22;;
4636;SDS011;2331;48.806;9.140;2024-02-21T07:45:12;8.25;;;2.42;;
4636;SDS011;2331;48.806;9.140;2024-02-21T07:47:39;6.10;;;2.75;;
4636;SDS011;2331;48.806;9.140;2024-02-21T07:50:08;12.45;;;2.63;;
4636;SDS011;2331;48.806;9.140;2024-02-21T07:52:35;10.77;;;2.28;;
4636;SDS011;2331;48.806;9.140;2024-02-21T07:55:01;4.60;;;2.50;;
4636;SDS011;2331;48.806;9.140;2024-02-21T07:57:28;7.07;;;2.13;;
4636;SDS011;2331;48.806;9.140;2024-02-21T07:59:55;8.65;;;2.60;;
4636;SDS011;2331;48.806;9.140;2024-02-21T08:02:22;9.07;;;2.80;;
4636;SDS011;2331;48.806;9.140;2024-02-21T08:04:48;10.18;;;2.30;;
4636;SDS011;2331;48.806;9.140;2024-02-21T08:07:16;9.05;;;2.42;;
4636;SDS011;2331;48.806;9.140;2024-02-21T08:09:43;6.43;;;2.15;;
4636;SDS011;2331;48.806;9.140;2024-02-21T08:12:10;7.05;;;2.30;;
4636;SDS011;2331;48.806;9.140;2024-02-21T08:14:36;9.95;;;2.85;;
4636;SDS011;2331;48.806;9.140;2024-02-21T08:17:03;6.35;;;1.80;;
4636;SDS011;2331;48.806;9.140;2024-02-21T08:19:30;6.00;;;2.33;;
4636;SDS011;2331;48.806;9.140;2024-02-21T08:21:57;4.43;;;1.90;;
4636;SDS011;2331;48.806;9.140;2024-02-21T08:24:25;6.55;;;2.55;;
4636;SDS011;2331;48.806;9.140;2024-02-21T08:26:51;5.63;;;2.05;;
4636;SDS011;2331;48.806;9.140;2024-02-21T08:29:18;8.10;;;2.40;;
4636;SDS011;2331;48.806;9.140;2024-02-21T08:31:45;9.20;;;3.00;;
4636;SDS011;2331;48.806;9.140;2024-02-21T08:34:11;6.78;;;2.20;;
4636;SDS011;2331;48.806;9.140;2024-02-21T08:36:38;5.95;;;2.40;;
4636;SDS011;2331;48.806;9.140;2024-02-21T08:39:05;10.57;;;2.85;;
4636;SDS011;2331;48.806;9.140;2024-02-21T08:41:34;8.63;;;2.17;;
4636;SDS011;2331;48.806;9.140;2024-02-21T08:44:01;7.93;;;2.35;;
4636;SDS011;2331;48.806;9.140;2024-02-21T08:46:28;7.63;;;2.25;;
4636;SDS011;2331;48.806;9.140;2024-02-21T08:48:54;6.80;;;2.50;;
4636;SDS011;2331;48.806;9.140;2024-02-21T08:51:21;6.55;;;2.55;;
4636;SDS011;2331;48.806;9.140;2024-02-21T08:53:48;9.60;;;2.78;;
4636;SDS011;2331;48.806;9.140;2024-02-21T08:56:15;6.85;;;1.77;;
4636;SDS011;2331;48.806;9.140;2024-02-21T08:58:44;5.72;;;2.10;;
4636;SDS011;2331;48.806;9.140;2024-02-21T09:01:10;3.80;;;2.25;;
4636;SDS011;2331;48.806;9.140;2024-02-21T09:03:37;5.30;;;2.13;;
4636;SDS011;2331;48.806;9.140;2024-02-21T09:06:04;4.93;;;2.33;;
4636;SDS011;2331;48.806;9.140;2024-02-21T09:08:32;4.40;;;2.00;;
4636;SDS011;2331;48.806;9.140;2024-02-21T09:10:59;5.72;;;2.35;;
4636;SDS011;2331;48.806;9.140;2024-02-21T09:13:26;7.57;;;2.50;;
4636;SDS011;2331;48.806;9.140;2024-02-21T09:15:54;6.88;;;2.20;;
4636;SDS011;2331;48.806;9.140;2024-02-21T09:18:20;9.63;;;2.13;;
4636;SDS011;2331;48.806;9.140;2024-02-21T09:20:47;7.53;;;3.25;;
4636;SDS011;2331;48.806;9.140;2024-02-21T09:23:14;8.05;;;2.13;;
4636;SDS011;2331;48.806;9.140;2024-02-21T09:25:41;7.10;;;2.45;;
4636;SDS011;2331;48.806;9.140;2024-02-21T09:28:07;6.25;;;2.53;;
4636;SDS011;2331;48.806;9.140;2024-02-21T09:30:35;7.50;;;2.55;;
4636;SDS011;2331;48.806;9.140;2024-02-21T09:33:04;7.55;;;2.13;;
4636;SDS011;2331;48.806;9.140;2024-02-21T09:35:31;9.07;;;2.25;;
4636;SDS011;2331;48.806;9.140;2024-02-21T09:37:59;6.15;;;2.58;;
4636;SDS011;2331;48.806;9.140;2024-02-21T09:40:26;8.65;;;2.85;;
4636;SDS011;2331;48.806;9.140;2024-02-21T09:42:55;7.28;;;2.78;;
4636;SDS011;2331;48.806;9.140;2024-02-21T09:45:29;7.47;;;2.17;;
4636;SDS011;2331;48.806;9.140;2024-02-21T09:48:06;6.90;;;2.20;;
4636;SDS011;2331;48.806;9.140;2024-02-21T09:50:44;8.25;;;2.55;;
4636;SDS011;2331;48.806;9.140;2024-02-21T09:53:13;5.80;;;2.25;;
4636;SDS011;2331;48.806;9.140;2024-02-21T09:55:41;8.77;;;2.58;;
4636;SDS011;2331;48.806;9.140;2024-02-21T09:58:09;9.50;;;2.20;;
4636;SDS011;2331;48.806;9.140;2024-02-21T10:00:37;14.48;;;3.45;;
4636;SDS011;2331;48.806;9.140;2024-02-21T10:03:05;6.07;;;2.45;;
4636;SDS011;2331;48.806;9.140;2024-02-21T10:05:34;4.22;;;2.10;;
4636;SDS011;2331;48.806;9.140;2024-02-21T10:08:01;5.38;;;2.30;;
4636;SDS011;2331;48.806;9.140;2024-02-21T10:10:28;8.57;;;2.40;;
4636;SDS011;2331;48.806;9.140;2024-02-21T10:12:55;5.47;;;2.03;;
4636;SDS011;2331;48.806;9.140;2024-02-21T10:15:23;3.80;;;1.75;;
4636;SDS011;2331;48.806;9.140;2024-02-21T10:17:58;8.10;;;2.80;;
4636;SDS011;2331;48.806;9.140;2024-02-21T10:20:26;8.52;;;2.50;;
4636;SDS011;2331;48.806;9.140;2024-02-21T10:23:00;9.10;;;2.70;;
4636;SDS011;2331;48.806;9.140;2024-02-21T10:25:28;12.65;;;2.55;;
4636;SDS011;2331;48.806;9.140;2024-02-21T10:27:55;11.73;;;3.33;;
4636;SDS011;2331;48.806;9.140;2024-02-21T10:30:23;9.00;;;3.30;;
4636;SDS011;2331;48.806;9.140;2024-02-21T10:32:49;4.68;;;1.80;;
4636;SDS011;2331;48.806;9.140;2024-02-21T10:35:25;6.25;;;2.25;;
4636;SDS011;2331;48.806;9.140;2024-02-21T10:37:54;4.75;;;1.75;;
4636;SDS011;2331;48.806;9.140;2024-02-21T10:40:22;5.35;;;2.60;;
4636;SDS011;2331;48.806;9.140;2024-02-21T10:42:54;11.88;;;2.92;;
4636;SDS011;2331;48.806;9.140;2024-02-21T10:45:28;7.05;;;2.05;;
4636;SDS011;2331;48.806;9.140;2024-02-21T10:47:59;7.18;;;2.35;;
4636;SDS011;2331;48.806;9.140;2024-02-21T10:50:41;6.15;;;1.90;;
4636;SDS011;2331;48.806;9.140;2024-02-21T10:53:20;7.85;;;2.30;;
4636;SDS011;2331;48.806;9.140;2024-02-21T10:55:56;6.18;;;2.30;;
4636;SDS011;2331;48.806;9.140;2024-02-21T10:58:32;10.27;;;2.10;;
4636;SDS011;2331;48.806;9.140;2024-02-21T11:00:59;7.35;;;2.65;;
4636;SDS011;2331;48.806;9.140;2024-02-21T11:03:26;10.43;;;3.00;;
4636;SDS011;2331;48.806;9.140;2024-02-21T11:05:55;6.25;;;1.83;;
4636;SDS011;2331;48.806;9.140;2024-02-21T11:08:22;8.73;;;1.80;;
4636;SDS011;2331;48.806;9.140;2024-02-21T11:10:50;8.13;;;1.92;;
4636;SDS011;2331;48.806;9.140;2024-02-21T11:13:19;9.73;;;2.47;;
4636;SDS011;2331;48.806;9.140;2024-02-21T11:16:05;8.07;;;2.00;;
4636;SDS011;2331;48.806;9.140;2024-02-21T11:18:34;4.35;;;1.60;;
4636;SDS011;2331;48.806;9.140;2024-02-21T11:21:02;5.55;;;1.95;;
4636;SDS011;2331;48.806;9.140;2024-02-21T11:23:29;4.55;;;1.50;;
4636;SDS011;2331;48.806;9.140;2024-02-21T11:26:03;4.40;;;1.50;;
4636;SDS011;2331;48.806;9.140;2024-02-21T11:28:31;2.85;;;1.50;;
4636;SDS011;2331;48.806;9.140;2024-02-21T11:31:06;4.80;;;1.55;;
4636;SDS011;2331;48.806;9.140;2024-02-21T11:33:33;4.88;;;1.83;;
4636;SDS011;2331;48.806;9.140;2024-02-21T11:36:01;5.20;;;1.92;;
4636;SDS011;2331;48.806;9.140;2024-02-21T11:38:29;5.40;;;1.60;;
4636;SDS011;2331;48.806;9.140;2024-02-21T11:40:56;5.13;;;1.45;;
4636;SDS011;2331;48.806;9.140;2024-02-21T11:43:23;5.32;;;1.52;;
4636;SDS011;2331;48.806;9.140;2024-02-21T11:45:50;4.53;;;1.73;;
4636;SDS011;2331;48.806;9.140;2024-02-21T11:48:24;4.28;;;1.40;;
4636;SDS011;2331;48.806;9.140;2024-02-21T11:50:54;3.17;;;1.45;;
4636;SDS011;2331;48.806;9.140;2024-02-21T11:53:22;4.28;;;1.40;;
4636;SDS011;2331;48.806;9.140;2024-02-21T11:55:49;6.13;;;1.60;;
4636;SDS011;2331;48.806;9.140;2024-02-21T11:58:16;4.05;;;1.65;;
4636;SDS011;2331;48.806;9.140;2024-02-21T12:00:43;3.88;;;1.02;;
4636;SDS011;2331;48.806;9.140;2024-02-21T12:03:10;2.90;;;1.40;;
4636;SDS011;2331;48.806;9.140;2024-02-21T12:05:36;6.78;;;1.70;;
4636;SDS011;2331;48.806;9.140;2024-02-21T12:08:03;3.63;;;1.30;;
4636;SDS011;2331;48.806;9.140;2024-02-21T12:10:32;4.03;;;1.45;;
4636;SDS011;2331;48.806;9.140;2024-02-21T12:13:07;7.47;;;1.95;;
4636;SDS011;2331;48.806;9.140;2024-02-21T12:15:34;5.55;;;1.70;;
4636;SDS011;2331;48.806;9.140;2024-02-21T12:18:01;4.40;;;1.60;;
4636;SDS011;2331;48.806;9.140;2024-02-21T12:20:27;3.95;;;1.45;;
4636;SDS011;2331;48.806;9.140;2024-02-21T12:22:55;3.08;;;1.48;;
4636;SDS011;2331;48.806;9.140;2024-02-21T12:25:22;9.02;;;2.20;;
4636;SDS011;2331;48.806;9.140;2024-02-21T12:27:52;8.32;;;2.15;;
4636;SDS011;2331;48.806;9.140;2024-02-21T12:30:19;4.90;;;1.50;;
4636;SDS011;2331;48.806;9.140;2024-02-21T12:32:46;5.53;;;1.60;;
4636;SDS011;2331;48.806;9.140;2024-02-21T12:35:13;4.00;;;1.80;;
4636;SDS011;2331;48.806;9.140;2024-02-21T12:37:40;4.88;;;2.28;;
4636;SDS011;2331;48.806;9.140;2024-02-21T12:40:08;4.57;;;1.85;;
4636;SDS011;2331;48.806;9.140;2024-02-21T12:42:36;2.88;;;1.30;;
4636;SDS011;2331;48.806;9.140;2024-02-21T12:45:05;4.50;;;1.77;;
4636;SDS011;2331;48.806;9.140;2024-02-21T12:47:32;4.55;;;1.50;;
4636;SDS011;2331;48.806;9.140;2024-02-21T12:49:59;3.25;;;1.40;;
4636;SDS011;2331;48.806;9.140;2024-02-21T12:52:28;2.63;;;1.50;;
4636;SDS011;2331;48.806;9.140;2024-02-21T12:54:55;4.10;;;1.35;;
4636;SDS011;2331;48.806;9.140;2024-02-21T12:57:23;6.25;;;1.65;;
4636;SDS011;2331;48.806;9.140;2024-02-21T12:59:50;3.90;;;1.48;;
4636;SDS011;2331;48.806;9.140;2024-02-21T13:02:18;4.82;;;1.42;;
4636;SDS011;2331;48.806;9.140;2024-02-21T13:04:46;6.25;;;1.98;;
4636;SDS011;2331;48.806;9.140;2024-02-21T13:07:12;3.47;;;1.73;;
4636;SDS011;2331;48.806;9.140;2024-02-21T13:09:39;5.25;;;1.73;;
4636;SDS011;2331;48.806;9.140;2024-02-21T13:12:06;4.45;;;1.63;;
4636;SDS011;2331;48.806;9.140;2024-02-21T13:14:33;3.85;;;1.60;;
4636;SDS011;2331;48.806;9.140;2024-02-21T13:17:01;3.33;;;1.42;;
4636;SDS011;2331;48.806;9.140;2024-02-21T13:19:29;3.80;;;1.20;;
4636;SDS011;2331;48.806;9.140;2024-02-21T13:21:56;5.25;;;1.50;;
4636;SDS011;2331;48.806;9.140;2024-02-21T13:24:23;5.43;;;1.67;;
4636;SDS011;2331;48.806;9.140;2024-02-21T13:26:49;4.07;;;1.23;;
4636;SDS011;2331;48.806;9.140;2024-02-21T13:29:16;4.30;;;1.80;;
4636;SDS011;2331;48.806;9.140;2024-02-21T13:31:43;6.65;;;1.33;;
4636;SDS011;2331;48.806;9.140;2024-02-21T13:34:10;2.80;;;1.00;;
4636;SDS011;2331;48.806;9.140;2024-02-21T13:36:38;5.50;;;1.52;;
4636;SDS011;2331;48.806;9.140;2024-02-21T13:39:05;4.88;;;1.42;;
4636;SDS011;2331;48.806;9.140;2024-02-21T13:41:33;1.88;;;1.33;;
4636;SDS011;2331;48.806;9.140;2024-02-21T13:44:00;3.20;;;1.35;;
4636;SDS011;2331;48.806;9.140;2024-02-21T13:46:26;2.58;;;1.25;;
4636;SDS011;2331;48.806;9.140;2024-02-21T13:48:54;4.15;;;1.35;;
4636;SDS011;2331;48.806;9.140;2024-02-21T13:51:30;3.30;;;1.40;;
4636;SDS011;2331;48.806;9.140;2024-02-21T13:53:58;2.03;;;1.23;;
4636;SDS011;2331;48.806;9.140;2024-02-21T13:56:25;2.45;;;1.20;;
4636;SDS011;2331;48.806;9.140;2024-02-21T13:58:51;2.50;;;1.15;;
4636;SDS011;2331;48.806;9.140;2024-02-21T14:01:18;4.57;;;1.35;;
4636;SDS011;2331;48.806;9.140;2024-02-21T14:03:45;3.00;;;1.30;;
4636;SDS011;2331;48.806;9.140;2024-02-21T14:06:11;3.45;;;0.88;;
4636;SDS011;2331;48.806;9.140;2024-02-21T14:08:38;5.03;;;1.15;;
4636;SDS011;2331;48.806;9.140;2024-02-21T14:11:06;3.25;;;1.20;;
4636;SDS011;2331;48.806;9.140;2024-02-21T14:13:33;2.20;;;1.08;;
4636;SDS011;2331;48.806;9.140;2024-02-21T14:16:00;2.10;;;0.90;;
4636;SDS011;2331;48.806;9.140;2024-02-21T14:18:26;4.10;;;1.70;;
4636;SDS011;2331;48.806;9.140;2024-02-21T14:20:53;4.20;;;1.20;;
4636;SDS011;2331;48.806;9.140;2024-02-21T14:23:20;4.05;;;1.38;;
4636;SDS011;2331;48.806;9.140;2024-02-21T14:25:46;5.15;;;1.20;;
4636;SDS011;2331;48.806;9.140;2024-02-21T14:28:15;4.15;;;1.20;;
4636;SDS011;2331;48.806;9.140;2024-02-21T14:30:43;2.10;;;0.93;;
4636;SDS011;2331;48.806;9.140;2024-02-21T14:33:09;2.53;;;0.95;;
4636;SDS011;2331;48.806;9.140;2024-02-21T14:35:36;3.58;;;0.98;;
4636;SDS011;2331;48.806;9.140;2024-02-21T14:38:03;4.72;;;1.10;;
4636;SDS011;2331;48.806;9.140;2024-02-21T14:40:30;2.60;;;1.17;;
4636;SDS011;2331;48.806;9.140;2024-02-21T14:42:58;2.75;;;1.05;;
4636;SDS011;2331;48.806;9.140;2024-02-21T14:45:27;3.15;;;0.98;;
4636;SDS011;2331;48.806;9.140;2024-02-21T14:47:53;1.88;;;1.08;;
4636;SDS011;2331;48.806;9.140;2024-02-21T14:50:20;1.88;;;0.93;;
4636;SDS011;2331;48.806;9.140;2024-02-21T14:52:48;3.45;;;1.33;;
4636;SDS011;2331;48.806;9.140;2024-02-21T14:55:15;1.83;;;0.80;;
4636;SDS011;2331;48.806;9.140;2024-02-21T14:57:42;3.40;;;0.90;;
4636;SDS011;2331;48.806;9.140;2024-02-21T15:00:09;1.77;;;0.90;;
4636;SDS011;2331;48.806;9.140;2024-02-21T15:02:38;3.50;;;1.50;;
4636;SDS011;2331;48.806;9.140;2024-02-21T15:05:05;3.92;;;1.42;;
4636;SDS011;2331;48.806;9.140;2024-02-21T15:07:32;2.55;;;1.05;;
4636;SDS011;2331;48.806;9.140;2024-02-21T15:09:59;3.65;;;1.35;;
4636;SDS011;2331;48.806;9.140;2024-02-21T15:12:25;2.30;;;0.90;;
4636;SDS011;2331;48.806;9.140;2024-02-21T15:14:52;3.22;;;1.13;;